<?xml version="1.0" encoding="UTF-8" standalone="no" ?>
<gpx xmlns="http://www.topografix.com/GPX/1/1" xmlns:xsi="http://www.w3.org/2001/XMLSchema-instance" xsi:schemaLocation="http://www.topografix.com/GPX/1/1 http://www.topografix.com/GPX/1/1/gpx.xsd" version="1.1" creator="VisuGPX - https://www.visugpx.com">
  <metadata>
    <name>GRPMelusine_J5_J9</name>
    <desc><![CDATA[gnerando idor: 12434239_12434246_12434251_12431499_12431542]]></desc>
  </metadata>
  <trk>
    <name><![CDATA[GRPMelusineJ7_StLaurentS_BazogesP_20.7km-12434251]]></name>
    <extensions>
      <line xmlns="http://www.topografix.com/GPX/gpx_style/0/2">
        <color>00FFFF</color>
        <width>4</width>
      </line>
    </extensions>
    <trkseg>
      <trkpt lat="46.56205" lon="-0.91476">
        <ele>62</ele>
        <time>2023-10-30T09:48:12Z</time>
      </trkpt>
      <trkpt lat="46.5614" lon="-0.91523">
        <ele>58</ele>
        <time>2023-10-30T09:49:49Z</time>
      </trkpt>
      <trkpt lat="46.5614" lon="-0.91772">
        <ele>60</ele>
        <time>2023-10-30T09:53:37Z</time>
      </trkpt>
      <trkpt lat="46.56197" lon="-0.92087">
        <ele>56</ele>
        <time>2023-10-30T09:58:36Z</time>
      </trkpt>
      <trkpt lat="46.56452" lon="-0.92338">
        <ele>69</ele>
        <time>2023-10-30T10:05:27Z</time>
      </trkpt>
      <trkpt lat="46.56562" lon="-0.92592">
        <ele>75</ele>
        <time>2023-10-30T10:10:03Z</time>
      </trkpt>
      <trkpt lat="46.56573" lon="-0.92598">
        <ele>75</ele>
        <time>2023-10-30T10:10:18Z</time>
      </trkpt>
      <trkpt lat="46.56666" lon="-0.92459">
        <ele>76</ele>
        <time>2023-10-30T10:13:16Z</time>
      </trkpt>
      <trkpt lat="46.56694" lon="-0.92396">
        <ele>77</ele>
        <time>2023-10-30T10:14:25Z</time>
      </trkpt>
      <trkpt lat="46.56874" lon="-0.92399">
        <ele>77</ele>
        <time>2023-10-30T10:18:25Z</time>
      </trkpt>
      <trkpt lat="46.57087" lon="-0.92557">
        <ele>75</ele>
        <time>2023-10-30T10:23:44Z</time>
      </trkpt>
      <trkpt lat="46.57129" lon="-0.92575">
        <ele>73</ele>
        <time>2023-10-30T10:24:43Z</time>
      </trkpt>
      <trkpt lat="46.57171" lon="-0.92575">
        <ele>71</ele>
        <time>2023-10-30T10:25:39Z</time>
      </trkpt>
      <trkpt lat="46.57217" lon="-0.92551">
        <ele>69</ele>
        <time>2023-10-30T10:26:44Z</time>
      </trkpt>
      <trkpt lat="46.57311" lon="-0.92514">
        <ele>69</ele>
        <time>2023-10-30T10:28:54Z</time>
      </trkpt>
      <trkpt lat="46.57495" lon="-0.9242">
        <ele>77</ele>
        <time>2023-10-30T10:33:14Z</time>
      </trkpt>
      <trkpt lat="46.57517" lon="-0.92497">
        <ele>77</ele>
        <time>2023-10-30T10:34:31Z</time>
      </trkpt>
      <trkpt lat="46.57538" lon="-0.9251">
        <ele>77</ele>
        <time>2023-10-30T10:35:01Z</time>
      </trkpt>
      <trkpt lat="46.57717" lon="-0.92457">
        <ele>77</ele>
        <time>2023-10-30T10:39:05Z</time>
      </trkpt>
      <trkpt lat="46.57746" lon="-0.92465">
        <ele>76</ele>
        <time>2023-10-30T10:39:44Z</time>
      </trkpt>
      <trkpt lat="46.57938" lon="-0.9262">
        <ele>70</ele>
        <time>2023-10-30T10:44:37Z</time>
      </trkpt>
      <trkpt lat="46.57982" lon="-0.92665">
        <ele>67</ele>
        <time>2023-10-30T10:45:49Z</time>
      </trkpt>
      <trkpt lat="46.58121" lon="-0.92826">
        <ele>69</ele>
        <time>2023-10-30T10:49:46Z</time>
      </trkpt>
      <trkpt lat="46.5824" lon="-0.92888">
        <ele>72</ele>
        <time>2023-10-30T10:52:35Z</time>
      </trkpt>
      <trkpt lat="46.58358" lon="-0.92969">
        <ele>74</ele>
        <time>2023-10-30T10:55:29Z</time>
      </trkpt>
      <trkpt lat="46.58525" lon="-0.9301">
        <ele>78</ele>
        <time>2023-10-30T10:59:15Z</time>
      </trkpt>
      <trkpt lat="46.58545" lon="-0.93062">
        <ele>79</ele>
        <time>2023-10-30T11:00:10Z</time>
      </trkpt>
      <trkpt lat="46.58579" lon="-0.93105">
        <ele>80</ele>
        <time>2023-10-30T11:01:10Z</time>
      </trkpt>
      <trkpt lat="46.58663" lon="-0.93156">
        <ele>83</ele>
        <time>2023-10-30T11:03:11Z</time>
      </trkpt>
      <trkpt lat="46.58724" lon="-0.93167">
        <ele>83</ele>
        <time>2023-10-30T11:04:33Z</time>
      </trkpt>
      <trkpt lat="46.5877" lon="-0.93199">
        <ele>84</ele>
        <time>2023-10-30T11:05:41Z</time>
      </trkpt>
      <trkpt lat="46.58771" lon="-0.93184">
        <ele>84</ele>
        <time>2023-10-30T11:05:55Z</time>
      </trkpt>
      <trkpt lat="46.58964" lon="-0.93323">
        <ele>92</ele>
        <time>2023-10-30T11:10:42Z</time>
      </trkpt>
      <trkpt lat="46.5906" lon="-0.93229">
        <ele>94</ele>
        <time>2023-10-30T11:13:17Z</time>
      </trkpt>
      <trkpt lat="46.59154" lon="-0.93379">
        <ele>98</ele>
        <time>2023-10-30T11:16:23Z</time>
      </trkpt>
      <trkpt lat="46.59206" lon="-0.93338">
        <ele>98</ele>
        <time>2023-10-30T11:17:42Z</time>
      </trkpt>
      <trkpt lat="46.59293" lon="-0.93242">
        <ele>100</ele>
        <time>2023-10-30T11:20:08Z</time>
      </trkpt>
      <trkpt lat="46.59356" lon="-0.93268">
        <ele>100</ele>
        <time>2023-10-30T11:21:35Z</time>
      </trkpt>
      <trkpt lat="46.5937" lon="-0.93291">
        <ele>100</ele>
        <time>2023-10-30T11:22:03Z</time>
      </trkpt>
      <trkpt lat="46.59417" lon="-0.93388">
        <ele>97</ele>
        <time>2023-10-30T11:23:52Z</time>
      </trkpt>
      <trkpt lat="46.59516" lon="-0.93308">
        <ele>97</ele>
        <time>2023-10-30T11:26:23Z</time>
      </trkpt>
      <trkpt lat="46.59557" lon="-0.93283">
        <ele>97</ele>
        <time>2023-10-30T11:27:22Z</time>
      </trkpt>
      <trkpt lat="46.59607" lon="-0.93263">
        <ele>98</ele>
        <time>2023-10-30T11:28:32Z</time>
      </trkpt>
      <trkpt lat="46.5965" lon="-0.93268">
        <ele>99</ele>
        <time>2023-10-30T11:29:29Z</time>
      </trkpt>
      <trkpt lat="46.59703" lon="-0.93253">
        <ele>99</ele>
        <time>2023-10-30T11:30:41Z</time>
      </trkpt>
      <trkpt lat="46.59729" lon="-0.93212">
        <ele>100</ele>
        <time>2023-10-30T11:31:32Z</time>
      </trkpt>
      <trkpt lat="46.59766" lon="-0.93193">
        <ele>100</ele>
        <time>2023-10-30T11:32:25Z</time>
      </trkpt>
      <trkpt lat="46.59797" lon="-0.93124">
        <ele>101</ele>
        <time>2023-10-30T11:33:40Z</time>
      </trkpt>
      <trkpt lat="46.59833" lon="-0.93081">
        <ele>102</ele>
        <time>2023-10-30T11:34:43Z</time>
      </trkpt>
      <trkpt lat="46.5985" lon="-0.93068">
        <ele>103</ele>
        <time>2023-10-30T11:35:08Z</time>
      </trkpt>
      <trkpt lat="46.60039" lon="-0.9319">
        <ele>110</ele>
        <time>2023-10-30T11:39:44Z</time>
      </trkpt>
      <trkpt lat="46.60046" lon="-0.93214">
        <ele>111</ele>
        <time>2023-10-30T11:40:08Z</time>
      </trkpt>
      <trkpt lat="46.60156" lon="-0.93098">
        <ele>111</ele>
        <time>2023-10-30T11:43:09Z</time>
      </trkpt>
      <trkpt lat="46.60243" lon="-0.92922">
        <ele>111</ele>
        <time>2023-10-30T11:46:28Z</time>
      </trkpt>
      <trkpt lat="46.60302" lon="-0.92862">
        <ele>110</ele>
        <time>2023-10-30T11:48:04Z</time>
      </trkpt>
      <trkpt lat="46.6034" lon="-0.92862">
        <ele>110</ele>
        <time>2023-10-30T11:48:55Z</time>
      </trkpt>
      <trkpt lat="46.60598" lon="-0.92682">
        <ele>117</ele>
        <time>2023-10-30T11:55:17Z</time>
      </trkpt>
      <trkpt lat="46.6061" lon="-0.9268">
        <ele>117</ele>
        <time>2023-10-30T11:55:33Z</time>
      </trkpt>
      <trkpt lat="46.60725" lon="-0.92484">
        <ele>122</ele>
        <time>2023-10-30T11:59:29Z</time>
      </trkpt>
      <trkpt lat="46.60742" lon="-0.92472">
        <ele>123</ele>
        <time>2023-10-30T11:59:54Z</time>
      </trkpt>
      <trkpt lat="46.60798" lon="-0.92547">
        <ele>120</ele>
        <time>2023-10-30T12:01:36Z</time>
      </trkpt>
      <trkpt lat="46.60907" lon="-0.92474">
        <ele>122</ele>
        <time>2023-10-30T12:04:16Z</time>
      </trkpt>
      <trkpt lat="46.60968" lon="-0.92448">
        <ele>122</ele>
        <time>2023-10-30T12:05:41Z</time>
      </trkpt>
      <trkpt lat="46.60994" lon="-0.92484">
        <ele>121</ele>
        <time>2023-10-30T12:06:29Z</time>
      </trkpt>
      <trkpt lat="46.61024" lon="-0.92478">
        <ele>121</ele>
        <time>2023-10-30T12:07:09Z</time>
      </trkpt>
      <trkpt lat="46.61095" lon="-0.92587">
        <ele>123</ele>
        <time>2023-10-30T12:09:27Z</time>
      </trkpt>
      <trkpt lat="46.6113" lon="-0.92669">
        <ele>125</ele>
        <time>2023-10-30T12:10:55Z</time>
      </trkpt>
      <trkpt lat="46.6114" lon="-0.92759">
        <ele>130</ele>
        <time>2023-10-30T12:12:19Z</time>
      </trkpt>
      <trkpt lat="46.61164" lon="-0.92802">
        <ele>131</ele>
        <time>2023-10-30T12:13:10Z</time>
      </trkpt>
      <trkpt lat="46.61242" lon="-0.92838">
        <ele>130</ele>
        <time>2023-10-30T12:14:59Z</time>
      </trkpt>
      <trkpt lat="46.61298" lon="-0.92901">
        <ele>130</ele>
        <time>2023-10-30T12:16:33Z</time>
      </trkpt>
      <trkpt lat="46.61388" lon="-0.92978">
        <ele>127</ele>
        <time>2023-10-30T12:18:52Z</time>
      </trkpt>
      <trkpt lat="46.6149" lon="-0.93145">
        <ele>126</ele>
        <time>2023-10-30T12:22:17Z</time>
      </trkpt>
      <trkpt lat="46.61669" lon="-0.93285">
        <ele>119</ele>
        <time>2023-10-30T12:26:48Z</time>
      </trkpt>
      <trkpt lat="46.61725" lon="-0.93298">
        <ele>118</ele>
        <time>2023-10-30T12:28:04Z</time>
      </trkpt>
      <trkpt lat="46.61751" lon="-0.93293">
        <ele>117</ele>
        <time>2023-10-30T12:28:39Z</time>
      </trkpt>
      <trkpt lat="46.61728" lon="-0.93328">
        <ele>118</ele>
        <time>2023-10-30T12:29:24Z</time>
      </trkpt>
      <trkpt lat="46.61703" lon="-0.93414">
        <ele>119</ele>
        <time>2023-10-30T12:30:49Z</time>
      </trkpt>
      <trkpt lat="46.61718" lon="-0.93512">
        <ele>116</ele>
        <time>2023-10-30T12:32:21Z</time>
      </trkpt>
      <trkpt lat="46.61714" lon="-0.93806">
        <ele>115</ele>
        <time>2023-10-30T12:36:51Z</time>
      </trkpt>
      <trkpt lat="46.61736" lon="-0.94001">
        <ele>112</ele>
        <time>2023-10-30T12:39:52Z</time>
      </trkpt>
      <trkpt lat="46.61665" lon="-0.94021">
        <ele>114</ele>
        <time>2023-10-30T12:41:28Z</time>
      </trkpt>
      <trkpt lat="46.61622" lon="-0.94072">
        <ele>111</ele>
        <time>2023-10-30T12:42:42Z</time>
      </trkpt>
      <trkpt lat="46.61599" lon="-0.94126">
        <ele>110</ele>
        <time>2023-10-30T12:43:41Z</time>
      </trkpt>
      <trkpt lat="46.6155" lon="-0.94139">
        <ele>110</ele>
        <time>2023-10-30T12:44:47Z</time>
      </trkpt>
      <trkpt lat="46.61462" lon="-0.94248">
        <ele>106</ele>
        <time>2023-10-30T12:47:21Z</time>
      </trkpt>
      <trkpt lat="46.61314" lon="-0.94233">
        <ele>103</ele>
        <time>2023-10-30T12:50:39Z</time>
      </trkpt>
      <trkpt lat="46.61269" lon="-0.9424">
        <ele>102</ele>
        <time>2023-10-30T12:51:40Z</time>
      </trkpt>
      <trkpt lat="46.61319" lon="-0.94313">
        <ele>105</ele>
        <time>2023-10-30T12:53:14Z</time>
      </trkpt>
      <trkpt lat="46.61363" lon="-0.94398">
        <ele>107</ele>
        <time>2023-10-30T12:54:52Z</time>
      </trkpt>
      <trkpt lat="46.61407" lon="-0.94381">
        <ele>107</ele>
        <time>2023-10-30T12:55:52Z</time>
      </trkpt>
      <trkpt lat="46.61434" lon="-0.94375">
        <ele>107</ele>
        <time>2023-10-30T12:56:29Z</time>
      </trkpt>
      <trkpt lat="46.61457" lon="-0.94381">
        <ele>108</ele>
        <time>2023-10-30T12:57:00Z</time>
      </trkpt>
      <trkpt lat="46.61488" lon="-0.94407">
        <ele>110</ele>
        <time>2023-10-30T12:57:48Z</time>
      </trkpt>
      <trkpt lat="46.61515" lon="-0.94474">
        <ele>112</ele>
        <time>2023-10-30T12:58:59Z</time>
      </trkpt>
      <trkpt lat="46.61541" lon="-0.94566">
        <ele>113</ele>
        <time>2023-10-30T13:00:30Z</time>
      </trkpt>
      <trkpt lat="46.61566" lon="-0.94746">
        <ele>116</ele>
        <time>2023-10-30T13:03:19Z</time>
      </trkpt>
      <trkpt lat="46.61581" lon="-0.94778">
        <ele>115</ele>
        <time>2023-10-30T13:03:54Z</time>
      </trkpt>
      <trkpt lat="46.61612" lon="-0.94787">
        <ele>114</ele>
        <time>2023-10-30T13:04:36Z</time>
      </trkpt>
      <trkpt lat="46.61637" lon="-0.94855">
        <ele>113</ele>
        <time>2023-10-30T13:05:47Z</time>
      </trkpt>
      <trkpt lat="46.61672" lon="-0.94933">
        <ele>113</ele>
        <time>2023-10-30T13:07:12Z</time>
      </trkpt>
      <trkpt lat="46.61743" lon="-0.95016">
        <ele>117</ele>
        <time>2023-10-30T13:09:14Z</time>
      </trkpt>
      <trkpt lat="46.61771" lon="-0.95027">
        <ele>119</ele>
        <time>2023-10-30T13:09:53Z</time>
      </trkpt>
      <trkpt lat="46.6179" lon="-0.95046">
        <ele>120</ele>
        <time>2023-10-30T13:10:23Z</time>
      </trkpt>
      <trkpt lat="46.6182" lon="-0.951">
        <ele>122</ele>
        <time>2023-10-30T13:11:27Z</time>
      </trkpt>
      <trkpt lat="46.61845" lon="-0.9516">
        <ele>123</ele>
        <time>2023-10-30T13:12:31Z</time>
      </trkpt>
      <trkpt lat="46.61879" lon="-0.95218">
        <ele>122</ele>
        <time>2023-10-30T13:13:41Z</time>
      </trkpt>
      <trkpt lat="46.61927" lon="-0.95267">
        <ele>122</ele>
        <time>2023-10-30T13:14:59Z</time>
      </trkpt>
      <trkpt lat="46.61979" lon="-0.95289">
        <ele>121</ele>
        <time>2023-10-30T13:16:12Z</time>
      </trkpt>
      <trkpt lat="46.61994" lon="-0.95298">
        <ele>121</ele>
        <time>2023-10-30T13:16:33Z</time>
      </trkpt>
      <trkpt lat="46.62039" lon="-0.95471">
        <ele>117</ele>
        <time>2023-10-30T13:19:23Z</time>
      </trkpt>
      <trkpt lat="46.62035" lon="-0.95493">
        <ele>117</ele>
        <time>2023-10-30T13:19:44Z</time>
      </trkpt>
      <trkpt lat="46.62107" lon="-0.95703">
        <ele>117</ele>
        <time>2023-10-30T13:23:19Z</time>
      </trkpt>
      <trkpt lat="46.62117" lon="-0.95774">
        <ele>116</ele>
        <time>2023-10-30T13:24:25Z</time>
      </trkpt>
      <trkpt lat="46.62094" lon="-0.95875">
        <ele>115</ele>
        <time>2023-10-30T13:26:03Z</time>
      </trkpt>
      <trkpt lat="46.62095" lon="-0.95907">
        <ele>114</ele>
        <time>2023-10-30T13:26:32Z</time>
      </trkpt>
      <trkpt lat="46.6215" lon="-0.95935">
        <ele>115</ele>
        <time>2023-10-30T13:27:50Z</time>
      </trkpt>
      <trkpt lat="46.6219" lon="-0.95963">
        <ele>116</ele>
        <time>2023-10-30T13:28:49Z</time>
      </trkpt>
      <trkpt lat="46.6224" lon="-0.96036">
        <ele>117</ele>
        <time>2023-10-30T13:30:24Z</time>
      </trkpt>
      <trkpt lat="46.6229" lon="-0.96057">
        <ele>118</ele>
        <time>2023-10-30T13:31:33Z</time>
      </trkpt>
      <trkpt lat="46.62362" lon="-0.96061">
        <ele>119</ele>
        <time>2023-10-30T13:33:09Z</time>
      </trkpt>
      <trkpt lat="46.62406" lon="-0.9613">
        <ele>120</ele>
        <time>2023-10-30T13:34:36Z</time>
      </trkpt>
      <trkpt lat="46.62484" lon="-0.9592">
        <ele>121</ele>
        <time>2023-10-30T13:38:14Z</time>
      </trkpt>
      <trkpt lat="46.62502" lon="-0.95825">
        <ele>122</ele>
        <time>2023-10-30T13:39:45Z</time>
      </trkpt>
      <trkpt lat="46.62535" lon="-0.95765">
        <ele>122</ele>
        <time>2023-10-30T13:40:55Z</time>
      </trkpt>
      <trkpt lat="46.62545" lon="-0.95707">
        <ele>122</ele>
        <time>2023-10-30T13:41:50Z</time>
      </trkpt>
      <trkpt lat="46.62535" lon="-0.95632">
        <ele>122</ele>
        <time>2023-10-30T13:43:00Z</time>
      </trkpt>
      <trkpt lat="46.62542" lon="-0.95566">
        <ele>122</ele>
        <time>2023-10-30T13:44:01Z</time>
      </trkpt>
      <trkpt lat="46.62557" lon="-0.9551">
        <ele>122</ele>
        <time>2023-10-30T13:44:56Z</time>
      </trkpt>
      <trkpt lat="46.62589" lon="-0.95437">
        <ele>125</ele>
        <time>2023-10-30T13:46:16Z</time>
      </trkpt>
      <trkpt lat="46.62607" lon="-0.95381">
        <ele>125</ele>
        <time>2023-10-30T13:47:12Z</time>
      </trkpt>
      <trkpt lat="46.62683" lon="-0.95244">
        <ele>125</ele>
        <time>2023-10-30T13:49:54Z</time>
      </trkpt>
      <trkpt lat="46.62701" lon="-0.95192">
        <ele>124</ele>
        <time>2023-10-30T13:50:47Z</time>
      </trkpt>
      <trkpt lat="46.62745" lon="-0.95171">
        <ele>125</ele>
        <time>2023-10-30T13:51:49Z</time>
      </trkpt>
      <trkpt lat="46.62773" lon="-0.95169">
        <ele>125</ele>
        <time>2023-10-30T13:52:26Z</time>
      </trkpt>
      <trkpt lat="46.62816" lon="-0.95156">
        <ele>124</ele>
        <time>2023-10-30T13:53:25Z</time>
      </trkpt>
      <trkpt lat="46.62885" lon="-0.94995">
        <ele>122</ele>
        <time>2023-10-30T13:56:19Z</time>
      </trkpt>
      <trkpt lat="46.62924" lon="-0.94941">
        <ele>121</ele>
        <time>2023-10-30T13:57:31Z</time>
      </trkpt>
      <trkpt lat="46.62947" lon="-0.94879">
        <ele>121</ele>
        <time>2023-10-30T13:58:35Z</time>
      </trkpt>
      <trkpt lat="46.63071" lon="-0.94632">
        <ele>124</ele>
        <time>2023-10-30T14:03:16Z</time>
      </trkpt>
      <trkpt lat="46.63149" lon="-0.94529">
        <ele>117</ele>
        <time>2023-10-30T14:05:36Z</time>
      </trkpt>
      <trkpt lat="46.63201" lon="-0.94529">
        <ele>115</ele>
        <time>2023-10-30T14:06:45Z</time>
      </trkpt>
      <trkpt lat="46.63258" lon="-0.94474">
        <ele>110</ele>
        <time>2023-10-30T14:08:17Z</time>
      </trkpt>
      <trkpt lat="46.63305" lon="-0.94439">
        <ele>107</ele>
        <time>2023-10-30T14:09:27Z</time>
      </trkpt>
      <trkpt lat="46.63369" lon="-0.94413">
        <ele>103</ele>
        <time>2023-10-30T14:10:56Z</time>
      </trkpt>
      <trkpt lat="46.63407" lon="-0.94383">
        <ele>99</ele>
        <time>2023-10-30T14:11:53Z</time>
      </trkpt>
      <trkpt lat="46.63416" lon="-0.94398">
        <ele>99</ele>
        <time>2023-10-30T14:12:12Z</time>
      </trkpt>
      <trkpt lat="46.63457" lon="-0.94403">
        <ele>98</ele>
        <time>2023-10-30T14:13:07Z</time>
      </trkpt>
      <trkpt lat="46.63595" lon="-0.94506">
        <ele>105</ele>
        <time>2023-10-30T14:16:34Z</time>
      </trkpt>
      <trkpt lat="46.63623" lon="-0.94555">
        <ele>104</ele>
        <time>2023-10-30T14:17:32Z</time>
      </trkpt>
      <trkpt lat="46.63747" lon="-0.94581">
        <ele>97</ele>
        <time>2023-10-30T14:20:19Z</time>
      </trkpt>
      <trkpt lat="46.63783" lon="-0.94572">
        <ele>97</ele>
        <time>2023-10-30T14:21:08Z</time>
      </trkpt>
      <trkpt lat="46.63939" lon="-0.94877">
        <ele>91</ele>
        <time>2023-10-30T14:26:56Z</time>
      </trkpt>
      <trkpt lat="46.63964" lon="-0.94935">
        <ele>92</ele>
        <time>2023-10-30T14:27:59Z</time>
      </trkpt>
      <trkpt lat="46.64001" lon="-0.95085">
        <ele>104</ele>
        <time>2023-10-30T14:30:25Z</time>
      </trkpt>
      <trkpt lat="46.64007" lon="-0.95154">
        <ele>104</ele>
        <time>2023-10-30T14:31:29Z</time>
      </trkpt>
      <trkpt lat="46.64001" lon="-0.95255">
        <ele>102</ele>
        <time>2023-10-30T14:33:02Z</time>
      </trkpt>
      <trkpt lat="46.64085" lon="-0.95171">
        <ele>98</ele>
        <time>2023-10-30T14:35:18Z</time>
      </trkpt>
      <trkpt lat="46.64141" lon="-0.95119">
        <ele>94</ele>
        <time>2023-10-30T14:36:46Z</time>
      </trkpt>
      <trkpt lat="46.64244" lon="-0.95036">
        <ele>87</ele>
        <time>2023-10-30T14:39:23Z</time>
      </trkpt>
      <trkpt lat="46.64266" lon="-0.94993">
        <ele>84</ele>
        <time>2023-10-30T14:40:13Z</time>
      </trkpt>
      <trkpt lat="46.6427" lon="-0.94958">
        <ele>82</ele>
        <time>2023-10-30T14:40:45Z</time>
      </trkpt>
      <trkpt lat="46.64245" lon="-0.94862">
        <ele>80</ele>
        <time>2023-10-30T14:42:19Z</time>
      </trkpt>
      <trkpt lat="46.6422" lon="-0.94808">
        <ele>79</ele>
        <time>2023-10-30T14:43:19Z</time>
      </trkpt>
      <trkpt lat="46.64198" lon="-0.9478">
        <ele>80</ele>
        <time>2023-10-30T14:43:58Z</time>
      </trkpt>
      <trkpt lat="46.64195" lon="-0.9475">
        <ele>77</ele>
        <time>2023-10-30T14:44:26Z</time>
      </trkpt>
      <trkpt lat="46.64199" lon="-0.94729">
        <ele>75</ele>
        <time>2023-10-30T14:44:46Z</time>
      </trkpt>
      <trkpt lat="46.64283" lon="-0.94645">
        <ele>65</ele>
        <time>2023-10-30T14:47:01Z</time>
      </trkpt>
      <trkpt lat="46.64295" lon="-0.94607">
        <ele>64</ele>
        <time>2023-10-30T14:47:40Z</time>
      </trkpt>
      <trkpt lat="46.643" lon="-0.94549">
        <ele>64</ele>
        <time>2023-10-30T14:48:33Z</time>
      </trkpt>
      <trkpt lat="46.64289" lon="-0.94439">
        <ele>65</ele>
        <time>2023-10-30T14:50:15Z</time>
      </trkpt>
      <trkpt lat="46.64289" lon="-0.94381">
        <ele>65</ele>
        <time>2023-10-30T14:51:08Z</time>
      </trkpt>
      <trkpt lat="46.64323" lon="-0.94285">
        <ele>66</ele>
        <time>2023-10-30T14:52:47Z</time>
      </trkpt>
      <trkpt lat="46.64367" lon="-0.94207">
        <ele>67</ele>
        <time>2023-10-30T14:54:20Z</time>
      </trkpt>
      <trkpt lat="46.64447" lon="-0.94087">
        <ele>67</ele>
        <time>2023-10-30T14:56:53Z</time>
      </trkpt>
      <trkpt lat="46.64599" lon="-0.93978">
        <ele>65</ele>
        <time>2023-10-30T15:00:39Z</time>
      </trkpt>
      <trkpt lat="46.64696" lon="-0.93856">
        <ele>63</ele>
        <time>2023-10-30T15:03:30Z</time>
      </trkpt>
      <trkpt lat="46.64787" lon="-0.9375">
        <ele>61</ele>
        <time>2023-10-30T15:06:06Z</time>
      </trkpt>
      <trkpt lat="46.64814" lon="-0.93753">
        <ele>61</ele>
        <time>2023-10-30T15:06:42Z</time>
      </trkpt>
      <trkpt lat="46.64935" lon="-0.93873">
        <ele>55</ele>
        <time>2023-10-30T15:09:57Z</time>
      </trkpt>
      <trkpt lat="46.65029" lon="-0.93989">
        <ele>56</ele>
        <time>2023-10-30T15:12:42Z</time>
      </trkpt>
      <trkpt lat="46.65089" lon="-0.93978">
        <ele>55</ele>
        <time>2023-10-30T15:14:02Z</time>
      </trkpt>
      <trkpt lat="46.6512" lon="-0.93984">
        <ele>56</ele>
        <time>2023-10-30T15:14:44Z</time>
      </trkpt>
      <trkpt lat="46.65239" lon="-0.93991">
        <ele>60</ele>
        <time>2023-10-30T15:17:23Z</time>
      </trkpt>
      <trkpt lat="46.65381" lon="-0.93517">
        <ele>51</ele>
        <time>2023-10-30T15:25:17Z</time>
      </trkpt>
      <trkpt lat="46.65416" lon="-0.93444">
        <ele>52</ele>
        <time>2023-10-30T15:26:38Z</time>
      </trkpt>
      <trkpt lat="46.65468" lon="-0.93482">
        <ele>50</ele>
        <time>2023-10-30T15:27:56Z</time>
      </trkpt>
      <trkpt lat="46.65521" lon="-0.93486">
        <ele>50</ele>
        <time>2023-10-30T15:29:07Z</time>
      </trkpt>
      <trkpt lat="46.65642" lon="-0.9363">
        <ele>51</ele>
        <time>2023-10-30T15:32:35Z</time>
      </trkpt>
      <trkpt lat="46.65686" lon="-0.93701">
        <ele>51</ele>
        <time>2023-10-30T15:34:03Z</time>
      </trkpt>
      <trkpt lat="46.65786" lon="-0.93776">
        <ele>51</ele>
        <time>2023-10-30T15:36:33Z</time>
      </trkpt>
      <trkpt lat="46.65809" lon="-0.9378">
        <ele>50</ele>
        <time>2023-10-30T15:37:04Z</time>
      </trkpt>
      <trkpt lat="46.65902" lon="-0.93753">
        <ele>50</ele>
        <time>2023-10-30T15:39:10Z</time>
      </trkpt>
      <trkpt lat="46.65955" lon="-0.93763">
        <ele>50</ele>
        <time>2023-10-30T15:40:22Z</time>
      </trkpt>
      <trkpt lat="46.6608" lon="-0.93896">
        <ele>46</ele>
        <time>2023-10-30T15:43:48Z</time>
      </trkpt>
      <trkpt lat="46.66207" lon="-0.9419">
        <ele>46</ele>
        <time>2023-10-30T15:49:06Z</time>
      </trkpt>
      <trkpt lat="46.66357" lon="-0.94105">
        <ele>49</ele>
        <time>2023-10-30T15:52:41Z</time>
      </trkpt>
      <trkpt lat="46.66098" lon="-0.93151">
        <ele>67</ele>
        <time>2023-10-30T16:08:21Z</time>
      </trkpt>
      <trkpt lat="46.66084" lon="-0.92875">
        <ele>73</ele>
        <time>2023-10-30T16:12:34Z</time>
      </trkpt>
      <trkpt lat="46.65909" lon="-0.92564">
        <ele>73</ele>
        <time>2023-10-30T16:18:42Z</time>
      </trkpt>
      <trkpt lat="46.65758" lon="-0.91941">
        <ele>73</ele>
        <time>2023-10-30T16:28:48Z</time>
      </trkpt>
      <trkpt lat="46.65684" lon="-0.91824">
        <ele>74</ele>
        <time>2023-10-30T16:31:13Z</time>
      </trkpt>
      <trkpt lat="46.65688" lon="-0.9163">
        <ele>74</ele>
        <time>2023-10-30T16:34:11Z</time>
      </trkpt>
      <trkpt lat="46.65615" lon="-0.9157">
        <ele>79</ele>
        <time>2023-10-30T16:36:03Z</time>
      </trkpt>
      <trkpt lat="46.65588" lon="-0.91409">
        <ele>77</ele>
        <time>2023-10-30T16:38:35Z</time>
      </trkpt>
      <trkpt lat="46.65655" lon="-0.91394">
        <ele>74</ele>
        <time>2023-10-30T16:40:05Z</time>
      </trkpt>
      <trkpt lat="46.65705" lon="-0.91502">
        <ele>74</ele>
        <time>2023-10-30T16:42:05Z</time>
      </trkpt>
      <trkpt lat="46.65718" lon="-0.91487">
        <ele>73</ele>
        <time>2023-10-30T16:42:27Z</time>
      </trkpt>
    </trkseg>
  </trk>
</gpx>